createdAt,value
2023-04-10T00:00:17.597Z,10.53
2023-04-10T00:02:45.782Z,10.52
2023-04-10T00:05:14.097Z,10.50
2023-04-10T00:07:42.244Z,10.52
2023-04-10T00:10:11.263Z,10.45
2023-04-10T00:12:40.768Z,10.46
2023-04-10T00:15:10.448Z,10.37
2023-04-10T00:17:38.583Z,10.27
2023-04-10T00:20:08.687Z,10.19
2023-04-10T00:22:36.782Z,10.13
2023-04-10T00:25:06.523Z,9.93
2023-04-10T00:27:34.550Z,9.95
2023-04-10T00:30:04.283Z,10.00
2023-04-10T00:32:32.382Z,9.88
2023-04-10T00:35:00.562Z,9.84
2023-04-10T00:37:28.634Z,9.54
2023-04-10T00:39:56.805Z,9.59
2023-04-10T00:42:24.869Z,9.58
2023-04-10T00:44:53.102Z,9.61
2023-04-10T00:47:23.059Z,9.42
2023-04-10T00:49:51.314Z,9.45
2023-04-10T00:52:19.426Z,9.28
2023-04-10T00:54:47.713Z,9.40
2023-04-10T00:57:15.770Z,9.51
2023-04-10T00:59:43.943Z,9.46
2023-04-10T01:02:13.231Z,9.41
2023-04-10T01:04:43.158Z,9.34
2023-04-10T01:07:19.151Z,9.30
2023-04-10T01:09:53.736Z,9.20
2023-04-10T01:12:52.604Z,9.22
2023-04-10T01:15:24.474Z,9.23
2023-04-10T01:18:02.016Z,9.21
2023-04-10T01:20:35.983Z,9.14
2023-04-10T01:23:36.727Z,9.01
2023-04-10T01:26:07.308Z,8.95
2023-04-10T01:29:00.169Z,8.89
2023-04-10T01:31:37.322Z,8.91
2023-04-10T01:34:10.483Z,8.92
2023-04-10T01:36:48.752Z,8.89
2023-04-10T01:39:21.104Z,8.85
2023-04-10T01:41:52.488Z,8.79
2023-04-10T01:44:28.571Z,8.84
2023-04-10T01:46:58.127Z,8.68
2023-04-10T01:49:29.891Z,8.76
2023-04-10T01:52:04.581Z,8.73
2023-04-10T01:54:34.460Z,8.75
2023-04-10T01:57:04.942Z,8.79
2023-04-10T01:59:42.460Z,8.70
2023-04-10T02:02:11.892Z,8.64
2023-04-10T02:04:40.253Z,8.53
2023-04-10T02:07:14.816Z,8.48
2023-04-10T02:09:52.010Z,8.40
2023-04-10T02:12:29.794Z,8.47
2023-04-10T02:15:02.909Z,8.52
2023-04-10T02:17:32.798Z,8.54
2023-04-10T02:20:02.080Z,8.50
2023-04-10T02:22:30.328Z,8.51
2023-04-10T02:25:00.467Z,8.57
2023-04-10T02:27:31.025Z,8.56
2023-04-10T02:30:03.256Z,8.59
2023-04-10T02:32:33.853Z,8.58
2023-04-10T02:35:02.982Z,8.56
2023-04-10T02:37:32.854Z,8.56
2023-04-10T02:40:02.645Z,8.51
2023-04-10T02:42:38.880Z,8.47
2023-04-10T02:45:10.270Z,8.32
2023-04-10T02:47:41.775Z,8.25
2023-04-10T02:50:11.339Z,8.23
2023-04-10T02:52:42.177Z,8.17
2023-04-10T02:55:11.653Z,8.10
2023-04-10T02:57:42.577Z,8.06
2023-04-10T03:00:14.153Z,7.96
2023-04-10T03:03:01.029Z,7.89
2023-04-10T03:05:36.228Z,7.91
2023-04-10T03:08:04.450Z,7.92
2023-04-10T03:10:32.537Z,7.95
2023-04-10T03:13:00.606Z,7.94
2023-04-10T03:15:30.049Z,7.91
2023-04-10T03:17:59.377Z,7.92
2023-04-10T03:20:27.722Z,7.87
2023-04-10T03:22:55.927Z,7.84
2023-04-10T03:25:27.702Z,7.87
2023-04-10T03:27:56.382Z,7.89
2023-04-10T03:30:24.900Z,7.91
2023-04-10T03:32:54.423Z,7.93
2023-04-10T03:35:22.732Z,7.91
2023-04-10T03:37:50.874Z,7.85
2023-04-10T03:40:18.991Z,7.79
2023-04-10T03:42:47.322Z,7.73
2023-04-10T03:45:15.797Z,7.84
2023-04-10T03:47:44.800Z,7.82
2023-04-10T03:50:17.824Z,7.82
2023-04-10T03:52:52.227Z,7.67
2023-04-10T03:55:22.824Z,7.65
2023-04-10T03:57:52.527Z,7.58
2023-04-10T04:00:26.076Z,7.55
2023-04-10T04:03:05.025Z,7.46
2023-04-10T04:05:56.243Z,7.46
2023-04-10T04:08:29.109Z,7.52
2023-04-10T04:11:20.356Z,7.53
2023-04-10T04:13:58.876Z,7.54
2023-04-10T04:16:50.008Z,7.55
2023-04-10T04:19:34.878Z,7.52
2023-04-10T04:22:23.418Z,7.61
2023-04-10T04:25:00.331Z,7.59
2023-04-10T04:27:48.648Z,7.63
2023-04-10T04:30:52.318Z,7.67
2023-04-10T04:33:29.149Z,7.62
2023-04-10T04:36:03.830Z,7.67
2023-04-10T04:38:45.314Z,7.60
2023-04-10T04:41:27.237Z,7.55
2023-04-10T04:44:04.679Z,7.48
2023-04-10T04:46:51.432Z,7.58
2023-04-10T04:49:41.641Z,7.56
2023-04-10T04:52:30.075Z,7.52
2023-04-10T04:55:08.595Z,7.58
2023-04-10T04:57:58.437Z,7.51
2023-04-10T05:00:38.545Z,7.47
2023-04-10T05:03:12.351Z,7.44
2023-04-10T05:05:59.776Z,7.46
2023-04-10T05:08:38.190Z,7.52
2023-04-10T05:11:25.462Z,7.50
2023-04-10T05:13:59.111Z,7.51
2023-04-10T05:16:38.726Z,7.62
2023-04-10T05:19:18.192Z,7.65
2023-04-10T05:21:55.652Z,7.68
2023-04-10T05:24:23.687Z,7.69
2023-04-10T05:27:11.470Z,7.72
2023-04-10T05:29:57.943Z,7.75
2023-04-10T05:32:38.095Z,7.86
2023-04-10T05:35:24.942Z,7.93
2023-04-10T05:38:01.539Z,8.01
2023-04-10T05:40:55.185Z,8.01
2023-04-10T05:43:38.900Z,8.03
2023-04-10T05:46:13.990Z,8.04
2023-04-10T05:48:52.950Z,8.05
2023-04-10T05:51:39.134Z,8.11
2023-04-10T05:54:21.207Z,8.15
2023-04-10T05:57:02.835Z,8.20
2023-04-10T05:59:56.445Z,8.24
2023-04-10T06:02:24.764Z,8.33
2023-04-10T06:04:53.239Z,8.38
2023-04-10T06:07:21.781Z,8.45
2023-04-10T06:09:49.872Z,8.58
2023-04-10T06:12:18.023Z,8.63
2023-04-10T06:14:46.174Z,8.60
2023-04-10T06:17:15.608Z,8.70
2023-04-10T06:19:43.722Z,8.77
2023-04-10T06:22:11.798Z,8.81
2023-04-10T06:24:39.842Z,9.00
2023-04-10T06:27:07.981Z,8.97
2023-04-10T06:29:36.320Z,8.89
2023-04-10T06:32:04.465Z,8.97
2023-04-10T06:34:38.090Z,9.02
2023-04-10T06:37:08.469Z,9.14
2023-04-10T06:39:39.324Z,9.10
2023-04-10T06:42:07.490Z,9.23
2023-04-10T06:44:55.429Z,9.31
2023-04-10T06:47:23.551Z,9.42
2023-04-10T06:49:53.258Z,9.52
2023-04-10T06:52:23.749Z,9.65
2023-04-10T06:54:51.787Z,9.76
2023-04-10T06:57:19.967Z,9.86
2023-04-10T06:59:48.076Z,9.98
2023-04-10T07:02:16.353Z,10.09
2023-04-10T07:04:44.396Z,10.23
2023-04-10T07:07:15.831Z,10.36
2023-04-10T07:09:43.890Z,10.49
2023-04-10T07:12:12.482Z,10.66
2023-04-10T07:14:41.335Z,10.80
2023-04-10T07:17:09.948Z,10.89
2023-04-10T07:19:38.656Z,11.01
2023-04-10T07:22:07.995Z,11.15
2023-04-10T07:24:37.442Z,11.20
2023-04-10T07:27:05.569Z,11.30
2023-04-10T07:29:33.660Z,11.45
2023-04-10T07:32:01.988Z,11.62
2023-04-10T07:34:32.412Z,11.83
2023-04-10T07:37:00.505Z,12.01
2023-04-10T07:39:28.577Z,12.12
2023-04-10T07:41:58.036Z,12.22
2023-04-10T07:44:28.576Z,12.32
2023-04-10T07:46:56.855Z,12.46
2023-04-10T07:49:25.022Z,12.58
2023-04-10T07:51:53.090Z,12.53
2023-04-10T07:54:21.324Z,12.68
2023-04-10T07:56:49.394Z,12.81
2023-04-10T07:59:18.812Z,12.92
2023-04-10T08:01:46.889Z,12.94
2023-04-10T08:04:15.336Z,13.15
2023-04-10T08:06:43.479Z,13.30
2023-04-10T08:09:11.973Z,13.38
2023-04-10T08:11:40.175Z,13.47
2023-04-10T08:14:08.464Z,13.62
2023-04-10T08:16:38.757Z,13.81
2023-04-10T08:19:06.975Z,13.95
2023-04-10T08:21:35.033Z,14.08
2023-04-10T08:24:05.021Z,14.29
2023-04-10T08:26:33.084Z,14.39
2023-04-10T08:29:01.780Z,14.56
2023-04-10T08:31:30.819Z,14.68
2023-04-10T08:34:00.708Z,14.86
2023-04-10T08:36:29.222Z,15.10
2023-04-10T08:38:57.364Z,15.20
2023-04-10T08:41:25.487Z,15.35
2023-04-10T08:43:53.867Z,15.45
2023-04-10T08:46:31.329Z,15.48
2023-04-10T08:49:04.565Z,15.55
2023-04-10T08:51:38.336Z,15.64
2023-04-10T08:54:11.858Z,15.78
2023-04-10T08:56:43.772Z,15.89
2023-04-10T08:59:11.981Z,15.99
2023-04-10T09:01:41.579Z,15.97
2023-04-10T09:04:13.267Z,16.07
2023-04-10T09:06:41.555Z,16.16
2023-04-10T09:09:10.431Z,16.24
2023-04-10T09:12:00.446Z,16.37
2023-04-10T09:14:30.860Z,16.52
2023-04-10T09:17:14.858Z,16.65
2023-04-10T09:19:46.498Z,16.74
2023-04-10T09:22:15.190Z,16.82
2023-04-10T09:24:45.839Z,16.97
2023-04-10T09:27:31.291Z,16.99
2023-04-10T09:30:00.108Z,17.14
2023-04-10T09:32:40.857Z,17.30
2023-04-10T09:35:36.520Z,17.48
2023-04-10T09:38:17.050Z,17.62
2023-04-10T09:40:46.040Z,17.70
2023-04-10T09:43:23.216Z,17.79
2023-04-10T09:45:54.253Z,17.84
2023-04-10T09:48:26.658Z,18.02
2023-04-10T09:50:56.657Z,18.07
2023-04-10T09:53:24.776Z,18.03
2023-04-10T09:55:53.013Z,18.10
2023-04-10T09:58:21.193Z,18.26
2023-04-10T10:00:50.631Z,18.28
2023-04-10T10:03:21.403Z,18.41
2023-04-10T10:05:52.308Z,18.51
2023-04-10T10:08:22.474Z,18.65
2023-04-10T10:10:55.514Z,18.76
2023-04-10T10:13:29.909Z,18.89
2023-04-10T10:16:09.929Z,18.90
2023-04-10T10:18:47.391Z,18.91
2023-04-10T10:21:16.108Z,19.00
2023-04-10T10:23:46.709Z,19.11
2023-04-10T10:26:15.668Z,19.19
2023-04-10T10:28:44.677Z,19.21
2023-04-10T10:31:13.660Z,19.31
2023-04-10T10:33:42.868Z,19.33
2023-04-10T10:36:13.883Z,19.32
2023-04-10T10:39:02.277Z,19.20
2023-04-10T10:41:40.883Z,19.17
2023-04-10T10:44:15.344Z,19.25
2023-04-10T10:46:54.064Z,19.29
2023-04-10T10:49:22.143Z,19.23
2023-04-10T10:51:52.164Z,19.17
2023-04-10T10:54:31.561Z,19.27
2023-04-10T10:57:02.465Z,19.39
2023-04-10T10:59:56.575Z,19.44
2023-04-10T11:02:25.295Z,19.52
2023-04-10T11:04:53.465Z,19.64
2023-04-10T11:07:21.727Z,19.76
2023-04-10T11:09:52.470Z,19.89
2023-04-10T11:12:24.320Z,19.84
2023-04-10T11:15:00.756Z,19.92
2023-04-10T11:17:52.411Z,19.92
2023-04-10T11:20:25.799Z,20.07
2023-04-10T11:23:12.066Z,20.10
2023-04-10T11:25:51.994Z,20.13
2023-04-10T11:28:38.321Z,20.16
2023-04-10T11:31:22.216Z,20.26
2023-04-10T11:34:01.902Z,20.26
2023-04-10T11:36:30.634Z,20.32
2023-04-10T11:39:00.400Z,20.36
2023-04-10T11:41:31.290Z,20.40
2023-04-10T11:44:02.178Z,20.45
2023-04-10T11:46:30.813Z,20.43
2023-04-10T11:49:02.851Z,20.51
2023-04-10T11:51:31.808Z,20.46
2023-04-10T11:54:08.852Z,20.49
2023-04-10T11:56:38.304Z,20.37
2023-04-10T11:59:10.964Z,20.46
2023-04-10T12:01:42.530Z,20.48
2023-04-10T12:04:16.437Z,20.46
2023-04-10T12:06:46.905Z,20.55
2023-04-10T12:09:17.276Z,20.57
2023-04-10T12:11:53.042Z,20.60
2023-04-10T12:14:24.052Z,20.60
2023-04-10T12:16:53.193Z,20.51
2023-04-10T12:19:23.572Z,20.57
2023-04-10T12:21:51.743Z,20.45
2023-04-10T12:24:45.945Z,20.45
2023-04-10T12:27:18.499Z,20.49
2023-04-10T12:29:49.448Z,20.28
2023-04-10T12:32:18.314Z,20.33
2023-04-10T12:34:51.879Z,20.43
2023-04-10T12:37:20.249Z,20.39
2023-04-10T12:39:48.366Z,20.40
2023-04-10T12:42:19.313Z,20.41
2023-04-10T12:44:58.841Z,20.35
2023-04-10T12:47:30.005Z,20.28
2023-04-10T12:50:08.954Z,20.25
2023-04-10T12:52:38.702Z,20.19
2023-04-10T12:55:13.059Z,20.15
2023-04-10T12:57:42.204Z,20.04
2023-04-10T13:00:15.867Z,20.02
2023-04-10T13:02:44.616Z,19.97
2023-04-10T13:05:13.134Z,20.01
2023-04-10T13:07:42.073Z,20.00
2023-04-10T13:10:11.202Z,20.04
2023-04-10T13:12:40.681Z,20.09
2023-04-10T13:15:11.745Z,20.09
2023-04-10T13:17:41.103Z,20.07
2023-04-10T13:20:10.803Z,20.05
2023-04-10T13:22:39.004Z,20.06
2023-04-10T13:25:07.834Z,20.12
2023-04-10T13:27:35.897Z,20.14
2023-04-10T13:30:04.192Z,20.13
2023-04-10T13:32:33.656Z,20.13
2023-04-10T13:35:01.757Z,20.15
2023-04-10T13:37:29.903Z,20.13
2023-04-10T13:39:57.906Z,20.18
2023-04-10T13:42:26.146Z,20.10
2023-04-10T13:44:54.229Z,20.09
2023-04-10T13:47:48.650Z,20.08
2023-04-10T13:50:16.734Z,20.03
2023-04-10T13:52:44.868Z,20.02
2023-04-10T13:55:13.188Z,20.03
2023-04-10T13:57:41.893Z,19.98
2023-04-10T14:00:10.901Z,19.96
2023-04-10T14:02:43.270Z,19.93
2023-04-10T14:05:12.988Z,19.89
2023-04-10T14:07:41.060Z,19.82
2023-04-10T14:10:10.910Z,19.84
2023-04-10T14:12:39.099Z,19.81
2023-04-10T14:15:08.886Z,19.78
2023-04-10T14:17:37.122Z,19.86
2023-04-10T14:20:06.443Z,19.85
2023-04-10T14:22:36.742Z,19.88
2023-04-10T14:25:13.131Z,19.82
2023-04-10T14:27:42.432Z,19.79
2023-04-10T14:30:11.612Z,19.80
2023-04-10T14:32:40.557Z,19.82
2023-04-10T14:35:09.842Z,19.86
2023-04-10T14:37:39.825Z,19.83
2023-04-10T14:40:10.857Z,19.77
2023-04-10T14:42:38.934Z,19.82
2023-04-10T14:45:08.479Z,19.84
2023-04-10T14:47:36.895Z,19.82
2023-04-10T14:50:05.691Z,19.81
2023-04-10T14:52:33.860Z,19.81
2023-04-10T14:55:03.482Z,19.75
2023-04-10T14:57:31.607Z,19.71
2023-04-10T15:00:01.334Z,19.82
2023-04-10T15:02:30.470Z,19.75
2023-04-10T15:04:58.750Z,19.76
2023-04-10T15:07:28.247Z,19.72
2023-04-10T15:09:58.824Z,19.66
2023-04-10T15:12:28.274Z,19.66
2023-04-10T15:14:56.370Z,19.68
2023-04-10T15:17:25.165Z,19.68
2023-04-10T15:19:53.242Z,19.63
2023-04-10T15:22:21.378Z,19.61
2023-04-10T15:24:50.899Z,19.63
2023-04-10T15:27:20.947Z,19.64
2023-04-10T15:29:50.520Z,19.62
2023-04-10T15:32:18.657Z,19.62
2023-04-10T15:34:46.759Z,19.59
2023-04-10T15:37:14.800Z,19.52
2023-04-10T15:39:42.822Z,19.48
2023-04-10T15:42:10.870Z,19.50
2023-04-10T15:44:38.930Z,19.49
2023-04-10T15:47:08.321Z,19.50
2023-04-10T15:49:38.385Z,19.49
2023-04-10T15:52:07.365Z,19.47
2023-04-10T15:54:35.737Z,19.45
2023-04-10T15:57:04.237Z,19.43
2023-04-10T15:59:33.864Z,19.45
2023-04-10T16:02:02.303Z,19.38
2023-04-10T16:04:32.491Z,19.36
2023-04-10T16:07:00.734Z,19.31
2023-04-10T16:09:28.902Z,19.29
2023-04-10T16:11:57.761Z,19.23
2023-04-10T16:14:25.847Z,19.20
2023-04-10T16:16:53.878Z,19.22
2023-04-10T16:19:21.954Z,19.24
2023-04-10T16:21:51.881Z,19.21
2023-04-10T16:24:20.728Z,19.19
2023-04-10T16:26:48.775Z,19.19
2023-04-10T16:29:19.764Z,19.15
2023-04-10T16:31:48.013Z,19.18
2023-04-10T16:34:16.183Z,19.15
2023-04-10T16:36:44.389Z,19.11
2023-04-10T16:39:13.829Z,19.11
2023-04-10T16:41:41.857Z,19.07
2023-04-10T16:44:12.422Z,19.09
2023-04-10T16:46:40.545Z,19.02
2023-04-10T16:49:32.576Z,18.95
2023-04-10T16:52:00.617Z,18.95
2023-04-10T16:54:30.124Z,18.95
2023-04-10T16:56:58.730Z,18.92
2023-04-10T16:59:26.829Z,18.94
2023-04-10T17:01:54.986Z,18.89
2023-04-10T17:04:23.160Z,18.89
2023-04-10T17:06:51.335Z,18.84
2023-04-10T17:09:19.388Z,18.81
2023-04-10T17:11:48.874Z,18.79
2023-04-10T17:14:16.931Z,18.76
2023-04-10T17:16:45.813Z,18.74
2023-04-10T17:19:14.060Z,18.71
2023-04-10T17:21:42.115Z,18.64
2023-04-10T17:24:10.208Z,18.62
2023-04-10T17:26:38.832Z,18.63
2023-04-10T17:29:08.230Z,18.59
2023-04-10T17:31:36.353Z,18.56
2023-04-10T17:34:04.931Z,18.52
2023-04-10T17:36:33.164Z,18.46
2023-04-10T17:39:01.584Z,18.47
2023-04-10T17:41:29.889Z,18.44
2023-04-10T17:43:57.958Z,18.44
2023-04-10T17:46:27.962Z,18.42
2023-04-10T17:49:01.202Z,18.38
2023-04-10T17:51:29.727Z,18.35
2023-04-10T17:53:57.719Z,18.35
2023-04-10T17:56:25.796Z,18.30
2023-04-10T17:58:54.728Z,18.26
2023-04-10T18:01:24.194Z,18.20
2023-04-10T18:03:53.764Z,18.14
2023-04-10T18:06:21.962Z,18.11
2023-04-10T18:08:51.047Z,18.11
2023-04-10T18:11:19.631Z,18.07
2023-04-10T18:13:48.206Z,18.04
2023-04-10T18:16:17.451Z,17.97
2023-04-10T18:18:45.609Z,17.94
2023-04-10T18:21:15.310Z,17.92
2023-04-10T18:23:44.569Z,17.86
2023-04-10T18:26:13.571Z,17.85
2023-04-10T18:28:43.190Z,17.80
2023-04-10T18:31:14.679Z,17.76
2023-04-10T18:33:43.513Z,17.70
2023-04-10T18:36:13.984Z,17.67
2023-04-10T18:38:43.882Z,17.60
2023-04-10T18:41:12.019Z,17.54
2023-04-10T18:43:40.234Z,17.51
2023-04-10T18:46:08.706Z,17.49
2023-04-10T18:48:42.999Z,17.46
2023-04-10T18:51:12.009Z,17.48
2023-04-10T18:53:41.336Z,17.47
2023-04-10T18:56:10.962Z,17.42
2023-04-10T18:58:39.041Z,17.42
2023-04-10T19:01:07.924Z,17.40
2023-04-10T19:03:36.355Z,17.37
2023-04-10T19:06:04.743Z,17.31
2023-04-10T19:08:32.818Z,17.27
2023-04-10T19:11:00.884Z,17.29
2023-04-10T19:13:30.251Z,17.27
2023-04-10T19:15:58.333Z,17.27
2023-04-10T19:18:26.453Z,17.30
2023-04-10T19:20:55.027Z,17.31
2023-04-10T19:23:23.114Z,17.24
2023-04-10T19:25:54.131Z,17.29
2023-04-10T19:28:23.858Z,17.26
2023-04-10T19:30:53.499Z,17.26
2023-04-10T19:33:21.622Z,17.21
2023-04-10T19:35:49.720Z,17.19
2023-04-10T19:38:18.093Z,17.15
2023-04-10T19:40:47.136Z,17.20
2023-04-10T19:43:15.230Z,17.23
2023-04-10T19:45:43.368Z,17.20
2023-04-10T19:48:16.742Z,17.21
2023-04-10T19:50:44.770Z,17.22
2023-04-10T19:53:15.428Z,17.20
2023-04-10T19:55:46.182Z,17.12
2023-04-10T19:58:35.654Z,17.13
2023-04-10T20:01:06.323Z,17.05
2023-04-10T20:03:36.877Z,17.05
2023-04-10T20:06:07.853Z,17.03
2023-04-10T20:08:37.467Z,17.05
2023-04-10T20:11:06.738Z,17.02
2023-04-10T20:13:35.359Z,17.04
2023-04-10T20:16:03.893Z,16.99
2023-04-10T20:18:32.869Z,16.99
2023-04-10T20:21:02.531Z,16.98
2023-04-10T20:23:30.586Z,16.97
2023-04-10T20:25:58.647Z,16.97
2023-04-10T20:28:26.869Z,16.97
2023-04-10T20:30:54.974Z,16.95
2023-04-10T20:33:23.246Z,17.02
2023-04-10T20:35:51.428Z,16.96
2023-04-10T20:38:20.912Z,16.94
2023-04-10T20:40:49.096Z,16.96
2023-04-10T20:43:18.675Z,16.86
2023-04-10T20:45:46.745Z,16.85
2023-04-10T20:48:14.893Z,16.93
2023-04-10T20:50:44.531Z,16.96
2023-04-10T20:53:13.015Z,16.91
2023-04-10T20:55:42.582Z,16.94
2023-04-10T20:58:10.663Z,16.91
2023-04-10T21:00:39.702Z,16.86
2023-04-10T21:03:08.121Z,16.83
2023-04-10T21:05:41.399Z,16.86
2023-04-10T21:08:10.038Z,16.73
2023-04-10T21:10:43.896Z,16.74
2023-04-10T21:13:14.235Z,16.83
2023-04-10T21:15:42.572Z,16.88
2023-04-10T21:18:11.461Z,16.83
2023-04-10T21:20:39.549Z,16.82
2023-04-10T21:23:07.657Z,16.75
2023-04-10T21:25:37.297Z,16.71
2023-04-10T21:28:05.800Z,16.55
2023-04-10T21:30:35.308Z,16.61
2023-04-10T21:33:03.430Z,16.65
2023-04-10T21:35:31.480Z,16.68
2023-04-10T21:38:02.153Z,16.52
2023-04-10T21:40:33.936Z,16.52
2023-04-10T21:43:02.180Z,16.49
2023-04-10T21:45:30.410Z,16.38
2023-04-10T21:48:00.778Z,16.45
2023-04-10T21:50:28.995Z,16.53
2023-04-10T21:52:57.093Z,16.55
2023-04-10T21:55:25.237Z,16.55
2023-04-10T21:57:53.299Z,16.53
2023-04-10T22:00:23.009Z,16.60
2023-04-10T22:02:52.039Z,16.51
2023-04-10T22:05:22.594Z,16.41
2023-04-10T22:07:50.673Z,16.34
2023-04-10T22:10:18.951Z,16.47
2023-04-10T22:12:48.918Z,16.43
2023-04-10T22:15:17.507Z,16.30
2023-04-10T22:17:45.764Z,16.36
2023-04-10T22:20:13.972Z,16.32
2023-04-10T22:22:43.375Z,16.28
2023-04-10T22:25:11.590Z,16.18
2023-04-10T22:27:39.643Z,16.20
2023-04-10T22:30:10.005Z,16.28
2023-04-10T22:32:38.294Z,16.28
2023-04-10T22:35:08.396Z,16.18
2023-04-10T22:37:36.486Z,16.09
2023-04-10T22:40:07.665Z,16.13
2023-04-10T22:42:35.755Z,16.21
2023-04-10T22:45:04.002Z,16.22
2023-04-10T22:47:55.994Z,16.20
2023-04-10T22:50:24.128Z,16.05
2023-04-10T22:52:52.157Z,16.11
2023-04-10T22:55:21.862Z,16.11
2023-04-10T22:57:50.181Z,16.18
2023-04-10T23:00:18.686Z,16.17
2023-04-10T23:02:46.812Z,16.11
2023-04-10T23:05:14.970Z,16.09
2023-04-10T23:08:08.890Z,16.09
2023-04-10T23:10:38.255Z,16.00
2023-04-10T23:13:06.382Z,15.92
2023-04-10T23:15:34.955Z,15.96
2023-04-10T23:18:03.063Z,16.04
2023-04-10T23:20:31.294Z,16.06
2023-04-10T23:22:59.350Z,16.07
2023-04-10T23:25:27.584Z,16.14
2023-04-10T23:27:57.927Z,16.03
2023-04-10T23:30:26.247Z,16.15
2023-04-10T23:32:54.342Z,16.10
2023-04-10T23:35:22.510Z,16.08
2023-04-10T23:37:51.148Z,16.07
2023-04-10T23:40:20.602Z,16.05
2023-04-10T23:42:48.903Z,16.02
2023-04-10T23:45:18.440Z,16.11
2023-04-10T23:47:47.318Z,16.11
2023-04-10T23:50:16.973Z,16.21
2023-04-10T23:52:50.250Z,16.14
2023-04-10T23:55:19.043Z,16.16
2023-04-10T23:57:47.153Z,16.18
